Time;durP1;ratioP1;P1;durP2;ratioP2;P2;SDS_P1;SDS_P2;PMS_P1;PMS_P2;Temp;Humidity;BMP_temperature;BMP_pressure;BME280_temperature;BME280_humidity;BME280_pressure;Samples;Min_cycle;Max_cycle;Signal;HPM_P1;HPM_P2
2022/09/05 00:01:14;;;;;;;4.80;3.63;;;19.60;66.60;;;;;;5009363;28;20122;-76
2022/09/05 00:03:51;;;;;;;5.13;3.80;;;19.60;66.70;;;;;;5009329;28;20053;-75
2022/09/05 00:06:20;;;;;;;5.70;3.80;;;19.60;67.10;;;;;;5009921;28;20129;-75
2022/09/05 00:09:11;;;;;;;5.78;3.90;;;19.60;67.00;;;;;;5009705;28;20492;-74
2022/09/05 00:11:44;;;;;;;4.00;3.55;;;19.60;67.40;;;;;;5009455;28;20489;-76
2022/09/05 00:14:28;;;;;;;5.65;4.00;;;19.50;67.30;;;;;;5009095;28;20130;-74
2022/09/05 00:17:02;;;;;;;5.47;4.15;;;19.50;67.30;;;;;;4992792;28;20080;-74
2022/09/05 00:20:06;;;;;;;6.35;3.88;;;19.50;67.40;;;;;;5009055;28;20060;-73
2022/09/05 00:22:53;;;;;;;11.07;4.40;;;19.50;67.80;;;;;;5017889;28;20065;-74
2022/09/05 00:25:49;;;;;;;4.25;3.75;;;19.50;67.60;;;;;;5009052;28;20496;-73
2022/09/05 00:28:20;;;;;;;4.68;4.20;;;19.50;67.60;;;;;;5010500;28;20042;-75
2022/09/05 00:31:03;;;;;;;7.53;4.00;;;19.40;67.60;;;;;;5012845;28;20440;-75
2022/09/05 00:34:07;;;;;;;5.32;4.10;;;19.40;67.70;;;;;;5012816;28;20078;-74
2022/09/05 00:36:46;;;;;;;8.43;4.30;;;19.40;67.80;;;;;;5012279;28;20054;-75
2022/09/05 00:39:34;;;;;;;5.80;4.00;;;19.40;67.90;;;;;;5012408;28;20049;-76
2022/09/05 00:42:07;;;;;;;8.43;5.20;;;19.40;68.00;;;;;;5012400;28;20046;-75
2022/09/05 00:44:37;;;;;;;5.20;4.07;;;19.40;67.80;;;;;;5012213;28;20050;-75
2022/09/05 00:47:12;;;;;;;5.88;4.50;;;19.30;68.50;;;;;;5012256;28;20048;-73
2022/09/05 00:50:06;;;;;;;4.80;4.30;;;19.30;68.30;;;;;;5012468;28;20042;-73
2022/09/05 00:52:55;;;;;;;5.68;4.18;;;19.30;68.50;;;;;;5012506;28;20038;-75
2022/09/05 00:55:36;;;;;;;5.25;4.35;;;19.20;68.40;;;;;;5012361;28;20057;-74
2022/09/05 00:58:20;;;;;;;5.15;4.65;;;19.20;69.00;;;;;;5012361;28;20045;-73
2022/09/05 01:00:57;;;;;;;;;;;19.20;68.60;;;;;;5012567;28;20042;-74
2022/09/05 01:03:56;;;;;;;7.43;5.40;;;19.20;68.70;;;;;;5012011;28;19917;-75
2022/09/05 01:06:26;;;;;;;6.30;4.38;;;19.20;68.70;;;;;;5012039;28;20559;-75
2022/09/05 01:09:29;;;;;;;5.15;4.30;;;19.20;68.40;;;;;;5012014;28;20058;-75
2022/09/05 01:12:16;;;;;;;4.63;4.05;;;19.10;68.80;;;;;;5012245;28;20048;-75
2022/09/05 01:14:44;;;;;;;6.70;4.97;;;19.10;69.10;;;;;;5012164;28;20397;-75
2022/09/05 01:17:19;;;;;;;5.05;4.57;;;19.10;68.80;;;;;;5012097;28;20432;-75
2022/09/05 01:20:08;;;;;;;5.43;4.35;;;19.00;68.80;;;;;;5011647;28;20512;-76
2022/09/05 01:22:56;;;;;;;6.90;4.60;;;19.00;68.90;;;;;;4995451;28;20056;-76
2022/09/05 01:25:34;;;;;;;6.13;4.38;;;19.00;69.00;;;;;;5011640;28;20057;-74
2022/09/05 01:28:13;;;;;;;6.38;4.65;;;19.00;69.00;;;;;;5011618;28;20038;-75
2022/09/05 01:30:49;;;;;;;5.53;4.45;;;18.90;69.30;;;;;;5011666;28;20052;-74
2022/09/05 01:33:37;;;;;;;7.07;4.55;;;18.90;69.40;;;;;;4995280;28;20038;-73
2022/09/05 01:36:36;;;;;;;5.35;4.63;;;18.90;69.60;;;;;;5011510;28;20062;-75
2022/09/05 01:39:26;;;;;;;5.57;4.57;;;18.80;70.00;;;;;;5011006;28;20049;-75
2022/09/05 01:42:03;;;;;;;6.38;5.28;;;18.80;69.90;;;;;;5011164;28;20098;-76
2022/09/05 01:44:56;;;;;;;7.88;5.32;;;18.80;69.90;;;;;;5011215;28;20493;-76
2022/09/05 01:47:36;;;;;;;5.25;4.65;;;18.70;70.40;;;;;;5011389;28;20046;-75
2022/09/05 01:50:20;;;;;;;6.13;5.32;;;18.70;70.20;;;;;;5011356;28;20050;-75
2022/09/05 01:53:13;;;;;;;6.82;5.05;;;18.60;70.40;;;;;;5011616;28;20095;-75
2022/09/05 01:56:23;;;;;;;5.85;4.90;;;18.50;70.60;;;;;;5011237;28;20099;-75
2022/09/05 01:58:56;;;;;;;5.75;4.95;;;18.50;71.10;;;;;;5011229;28;20082;-75
2022/09/05 02:01:44;;;;;;;6.10;5.50;;;18.50;70.70;;;;;;5011213;28;20048;-74
2022/09/05 02:04:31;;;;;;;5.63;5.13;;;18.50;71.20;;;;;;5010983;28;20049;-75
2022/09/05 02:07:07;;;;;;;9.18;5.15;;;18.40;71.20;;;;;;5011130;28;20167;-76
2022/09/05 02:09:58;;;;;;;5.53;5.03;;;18.30;71.30;;;;;;5011078;28;20046;-75
2022/09/05 02:12:33;;;;;;;6.85;5.75;;;18.30;71.40;;;;;;5010923;28;20063;-76
2022/09/05 02:15:08;;;;;;;6.43;5.70;;;18.30;71.40;;;;;;5010867;28;20049;-76
2022/09/05 02:17:40;;;;;;;8.25;5.15;;;18.30;71.60;;;;;;5010900;28;20056;-73
2022/09/05 02:20:34;;;;;;;6.05;5.15;;;18.20;71.80;;;;;;5011037;28;20110;-74
2022/09/05 02:23:14;;;;;;;6.63;5.20;;;18.20;72.20;;;;;;5011113;28;20041;-73
2022/09/05 02:26:08;;;;;;;7.32;5.15;;;18.10;72.20;;;;;;4994292;28;20077;-75
2022/09/05 02:28:39;;;;;;;7.40;5.78;;;18.00;72.50;;;;;;4994822;28;20111;-75
2022/09/05 02:31:38;;;;;;;6.88;5.72;;;18.00;72.30;;;;;;5010727;28;20497;-74
2022/09/05 02:34:26;;;;;;;6.38;5.80;;;18.00;72.60;;;;;;5010632;28;20045;-75
2022/09/05 02:37:13;;;;;;;6.95;5.70;;;18.00;72.40;;;;;;5010341;28;20089;-73
2022/09/05 02:39:55;;;;;;;7.07;6.05;;;17.90;72.90;;;;;;5010675;28;20045;-74
2022/09/05 02:42:28;;;;;;;6.90;6.20;;;17.80;72.70;;;;;;4994174;28;20501;-74
2022/09/05 02:44:54;;;;;;;9.40;5.97;;;17.80;72.70;;;;;;5010286;28;20057;-74
2022/09/05 02:47:39;;;;;;;5.97;5.35;;;17.70;72.70;;;;;;5010389;28;20042;-74
2022/09/05 02:50:43;;;;;;;9.93;6.43;;;17.70;72.90;;;;;;5009816;28;20042;-75
2022/09/05 02:53:12;;;;;;;6.38;5.57;;;17.70;73.20;;;;;;5020752;28;20041;-76
2022/09/05 02:56:05;;;;;;;7.10;5.68;;;17.60;73.00;;;;;;5010087;28;20482;-74
2022/09/05 02:58:54;;;;;;;6.20;5.60;;;17.60;73.50;;;;;;5010496;28;20090;-74
2022/09/05 03:01:37;;;;;;;8.18;6.20;;;17.60;73.60;;;;;;5010230;28;20129;-74
2022/09/05 03:04:17;;;;;;;6.93;6.13;;;17.60;73.60;;;;;;5009950;28;20057;-74
2022/09/05 03:06:52;;;;;;;10.38;6.03;;;17.50;73.60;;;;;;4994118;28;20401;-75
2022/09/05 03:09:50;;;;;;;6.82;6.13;;;17.50;73.60;;;;;;4994094;28;20401;-75
2022/09/05 03:12:35;;;;;;;6.57;5.60;;;17.50;74.10;;;;;;5010251;28;20042;-76
2022/09/05 03:15:03;;;;;;;7.18;6.15;;;17.50;73.90;;;;;;5010046;28;20053;-75
2022/09/05 03:17:52;;;;;;;6.82;6.22;;;17.40;74.00;;;;;;5009910;28;20089;-74
2022/09/05 03:20:54;;;;;;;7.82;6.15;;;17.40;74.10;;;;;;5010001;28;20053;-76
2022/09/05 03:23:38;;;;;;;7.82;6.80;;;17.40;74.50;;;;;;5009999;28;20046;-75
2022/09/05 03:26:22;;;;;;;7.85;6.78;;;17.30;74.40;;;;;;5009860;28;20098;-75
2022/09/05 03:28:50;;;;;;;7.68;6.95;;;17.30;74.50;;;;;;5010092;28;20061;-74
2022/09/05 03:31:47;;;;;;;7.15;6.55;;;17.20;74.30;;;;;;5009975;28;20073;-75
2022/09/05 03:34:37;;;;;;;7.65;6.95;;;17.20;74.60;;;;;;5009702;28;20041;-74
2022/09/05 03:37:25;;;;;;;7.10;6.50;;;17.20;74.50;;;;;;5009704;28;20146;-76
2022/09/05 03:40:09;;;;;;;7.75;6.93;;;17.10;74.70;;;;;;5009697;28;20046;-74
2022/09/05 03:43:07;;;;;;;8.10;7.30;;;17.10;74.80;;;;;;5009618;28;20085;-75
2022/09/05 03:46:07;;;;;;;8.10;7.03;;;17.00;74.90;;;;;;5016731;28;20126;-74
2022/09/05 03:49:07;;;;;;;8.32;7.57;;;16.90;74.90;;;;;;5009600;28;20049;-74
2022/09/05 03:52:11;;;;;;;8.25;7.55;;;16.90;74.90;;;;;;4993411;28;20053;-75
2022/09/05 03:55:18;;;;;;;9.05;8.15;;;16.90;75.20;;;;;;5017506;28;20130;-75
2022/09/05 03:57:50;;;;;;;8.65;7.70;;;16.90;75.20;;;;;;5017148;28;20050;-74
2022/09/05 04:00:21;;;;;;;9.00;8.20;;;16.80;75.00;;;;;;5009491;28;20519;-76
2022/09/05 04:02:49;;;;;;;9.35;8.48;;;16.80;75.20;;;;;;5009092;28;20092;-75
2022/09/05 04:05:20;;;;;;;9.93;8.88;;;16.80;75.20;;;;;;5009225;28;20046;-75
2022/09/05 04:07:53;;;;;;;9.55;8.50;;;16.80;75.30;;;;;;5009506;28;20402;-74
2022/09/05 04:10:28;;;;;;;9.85;8.95;;;16.80;75.20;;;;;;5009351;28;20069;-75
2022/09/05 04:13:07;;;;;;;9.70;8.80;;;16.70;75.40;;;;;;5009480;28;20088;-75
2022/09/05 04:15:46;;;;;;;9.60;8.50;;;16.80;75.40;;;;;;5008721;28;20046;-76
2022/09/05 04:18:17;;;;;;;9.70;8.70;;;16.70;75.40;;;;;;4989515;28;20042;-75
2022/09/05 04:21:09;;;;;;;10.32;9.27;;;16.70;75.60;;;;;;4989763;28;20443;-74
2022/09/05 04:23:41;;;;;;;10.07;9.15;;;16.60;75.80;;;;;;4989604;28;20456;-75
2022/09/05 04:26:42;;;;;;;11.02;9.48;;;16.50;75.80;;;;;;5005661;28;20046;-74
2022/09/05 04:29:22;;;;;;;9.85;8.95;;;16.50;76.30;;;;;;4989377;28;20043;-74
2022/09/05 04:32:13;;;;;;;10.27;9.38;;;16.40;76.30;;;;;;4989309;28;20053;-74
2022/09/05 04:35:06;;;;;;;10.35;9.38;;;16.40;76.40;;;;;;4989134;28;20038;-76
2022/09/05 04:37:35;;;;;;;9.85;8.88;;;16.40;76.50;;;;;;4989371;28;20042;-75
2022/09/05 04:40:30;;;;;;;10.77;9.88;;;16.30;76.40;;;;;;4989193;28;20046;-75
2022/09/05 04:43:03;;;;;;;10.20;9.20;;;16.30;76.90;;;;;;4989280;28;20129;-75
2022/09/05 04:45:36;;;;;;;10.57;9.50;;;16.20;76.60;;;;;;4989098;28;20046;-75
2022/09/05 04:48:04;;;;;;;11.00;9.85;;;16.20;76.50;;;;;;4989220;28;20057;-74
2022/09/05 04:50:32;;;;;;;10.27;9.27;;;16.20;76.60;;;;;;4989008;28;20054;-75
2022/09/05 04:53:30;;;;;;;11.70;9.95;;;16.20;76.70;;;;;;5021635;28;20042;-75
2022/09/05 04:55:58;;;;;;;11.80;10.68;;;16.20;76.90;;;;;;5021291;28;20050;-75
2022/09/05 04:58:29;;;;;;;11.52;9.65;;;16.10;76.90;;;;;;4989177;28;20046;-74
2022/09/05 05:01:14;;;;;;;12.13;9.98;;;16.10;76.90;;;;;;4989373;28;20068;-74
2022/09/05 05:03:41;;;;;;;10.98;9.75;;;16.10;77.30;;;;;;4972775;28;20053;-75
2022/09/05 05:06:19;;;;;;;11.18;10.15;;;16.10;77.10;;;;;;4988007;28;20133;-74
2022/09/05 05:08:47;;;;;;;13.32;10.02;;;16.10;77.20;;;;;;5020051;28;20042;-75
2022/09/05 05:11:26;;;;;;;11.20;10.10;;;16.10;77.10;;;;;;5020144;28;20054;-75
2022/09/05 05:13:54;;;;;;;9.70;8.90;;;16.10;77.20;;;;;;5021044;28;20095;-75
2022/09/05 05:16:40;;;;;;;10.73;9.73;;;16.10;77.30;;;;;;4991236;28;20107;-76
2022/09/05 05:19:49;;;;;;;11.32;10.13;;;16.10;77.70;;;;;;5008100;28;20088;-73
2022/09/05 05:22:16;;;;;;;10.88;9.77;;;16.10;77.50;;;;;;4936543;28;20047;-74
2022/09/05 05:24:55;;;;;;;10.30;8.63;;;16.20;77.50;;;;;;4920706;28;20055;-74
2022/09/05 05:27:24;;;;;;;12.38;9.13;;;16.20;77.80;;;;;;4967271;28;20051;-75
2022/09/05 05:29:58;;;;;;;10.95;9.88;;;16.20;77.70;;;;;;4992345;28;20371;-75
2022/09/05 05:32:35;;;;;;;11.75;10.10;;;16.30;77.60;;;;;;4992034;28;20099;-74
2022/09/05 05:35:11;;;;;;;10.57;9.57;;;16.40;77.70;;;;;;4991772;28;20065;-73
2022/09/05 05:37:44;;;;;;;11.35;10.07;;;16.30;77.80;;;;;;4991982;28;20058;-74
2022/09/05 05:40:15;;;;;;;10.73;9.50;;;16.40;77.80;;;;;;4991979;28;20050;-73
2022/09/05 05:42:43;;;;;;;11.10;10.00;;;16.40;77.90;;;;;;4992107;28;20057;-75
2022/09/05 05:45:30;;;;;;;10.43;9.40;;;16.40;77.80;;;;;;4991642;28;20047;-73
2022/09/05 05:48:27;;;;;;;11.10;10.05;;;16.50;78.30;;;;;;5008066;28;20051;-74
2022/09/05 05:51:00;;;;;;;9.97;9.10;;;16.50;78.40;;;;;;4991814;28;20091;-75
2022/09/05 05:53:56;;;;;;;11.27;10.25;;;16.60;77.80;;;;;;4991971;28;20042;-73
2022/09/05 05:57:00;;;;;;;12.35;9.27;;;16.60;78.00;;;;;;5024469;28;20094;-75
2022/09/05 05:59:50;;;;;;;11.13;9.30;;;16.70;77.90;;;;;;5040369;28;20057;-74
2022/09/05 06:02:18;;;;;;;11.30;9.43;;;16.80;77.60;;;;;;4991729;28;20435;-74
2022/09/05 06:05:13;;;;;;;11.63;10.43;;;16.90;77.30;;;;;;4991489;28;20043;-75
2022/09/05 06:07:51;;;;;;;12.52;9.38;;;17.00;77.70;;;;;;4991603;28;20125;-75
2022/09/05 06:10:28;;;;;;;10.48;9.55;;;17.10;77.60;;;;;;5008077;28;20034;-74
2022/09/05 06:13:12;;;;;;;10.38;9.27;;;17.20;77.30;;;;;;4993749;28;20040;-76
2022/09/05 06:16:08;;;;;;;10.10;9.20;;;17.30;76.90;;;;;;5034248;28;20042;-74
2022/09/05 06:19:11;;;;;;;14.65;10.95;;;17.40;77.70;;;;;;5010902;28;20102;-75
2022/09/05 06:21:55;;;;;;;10.02;9.13;;;17.50;77.30;;;;;;4994577;28;20085;-76
2022/09/05 06:24:39;;;;;;;;;;;17.60;78.00;;;;;;5011166;28;20060;-75
2022/09/05 06:27:23;;;;;;;10.48;9.25;;;17.70;78.10;;;;;;5010872;28;19918;-75
2022/09/05 06:30:06;;;;;;;10.45;9.35;;;17.80;77.10;;;;;;4994537;28;20065;-75
2022/09/05 06:32:41;;;;;;;11.40;8.52;;;17.90;77.20;;;;;;5010717;28;20042;-75
2022/09/05 06:35:09;;;;;;;8.55;7.63;;;17.90;76.80;;;;;;5010170;28;20058;-75
2022/09/05 06:37:40;;;;;;;9.90;8.85;;;18.00;76.60;;;;;;5010969;28;20054;-74
2022/09/05 06:40:39;;;;;;;10.00;9.00;;;18.00;76.50;;;;;;5010249;28;20046;-74
2022/09/05 06:43:26;;;;;;;7.93;7.22;;;18.10;76.30;;;;;;5009230;28;20061;-74
2022/09/05 06:46:06;;;;;;;10.60;9.45;;;18.30;76.00;;;;;;5033387;28;20046;-76
2022/09/05 06:48:51;;;;;;;9.48;8.48;;;18.40;75.70;;;;;;5007961;28;20391;-75
2022/09/05 06:51:40;;;;;;;10.60;9.48;;;18.50;75.60;;;;;;5010013;28;20041;-74
2022/09/05 06:54:43;;;;;;;8.90;8.02;;;18.50;75.30;;;;;;4993939;28;20077;-75
2022/09/05 06:57:20;;;;;;;9.55;7.97;;;18.70;74.90;;;;;;5010316;28;20405;-75
2022/09/05 07:00:04;;;;;;;9.50;8.63;;;18.70;74.40;;;;;;5010253;28;20046;-75
2022/09/05 07:02:49;;;;;;;9.75;8.80;;;18.80;74.00;;;;;;5010055;28;20088;-75
2022/09/05 07:05:35;;;;;;;9.43;8.52;;;18.90;74.00;;;;;;5010120;28;20057;-75
2022/09/05 07:08:18;;;;;;;10.75;9.70;;;19.00;73.60;;;;;;5010129;28;20045;-76
2022/09/05 07:11:00;;;;;;;9.45;8.55;;;19.10;73.80;;;;;;4993813;28;20113;-74
2022/09/05 07:13:38;;;;;;;10.48;9.40;;;19.20;73.70;;;;;;5010440;28;20389;-75
2022/09/05 07:16:16;;;;;;;9.65;8.57;;;19.40;73.40;;;;;;5010287;28;20061;-78
2022/09/05 07:19:16;;;;;;;9.23;8.27;;;19.50;72.70;;;;;;4993664;28;20516;-75
2022/09/05 07:22:11;;;;;;;9.75;8.85;;;19.60;72.40;;;;;;5043058;27;20480;-75
2022/09/05 07:24:43;;;;;;;9.75;8.80;;;19.70;72.20;;;;;;5009692;28;20077;-74
2022/09/05 07:27:11;;;;;;;8.98;8.18;;;19.80;71.90;;;;;;5009866;28;20045;-75
2022/09/05 07:29:44;;;;;;;9.68;7.97;;;19.90;71.90;;;;;;5009086;28;20042;-74
2022/09/05 07:32:16;;;;;;;9.63;8.70;;;20.00;71.60;;;;;;5010094;28;20046;-76
2022/09/05 07:34:45;;;;;;;9.85;8.77;;;20.10;71.20;;;;;;5009439;28;20046;-75
2022/09/05 07:37:39;;;;;;;9.38;8.48;;;20.20;70.90;;;;;;5009048;28;20050;-75
2022/09/05 07:40:08;;;;;;;;;;;20.30;70.80;;;;;;5047821;28;20459;-74
2022/09/05 07:42:42;;;;;;;9.90;9.00;;;20.40;71.00;;;;;;5009786;28;19961;-75
2022/09/05 07:45:16;;;;;;;9.85;8.75;;;20.60;70.60;;;;;;5009631;28;20200;-75
2022/09/05 07:47:58;;;;;;;9.85;8.38;;;20.60;70.60;;;;;;5005394;28;20070;-73
2022/09/05 07:50:26;;;;;;;11.73;8.63;;;20.70;70.10;;;;;;5002058;28;20462;-74
2022/09/05 07:52:55;;;;;;;10.52;8.77;;;20.70;70.10;;;;;;4987353;28;20049;-73
2022/09/05 07:55:26;;;;;;;9.98;9.07;;;20.80;70.00;;;;;;5002734;28;20092;-74
2022/09/05 07:57:55;;;;;;;9.38;8.48;;;20.90;69.90;;;;;;4998833;28;20046;-73
2022/09/05 08:00:23;;;;;;;9.63;8.38;;;21.00;70.00;;;;;;4985440;28;20099;-73
2022/09/05 08:02:49;;;;;;;10.77;8.30;;;21.00;70.00;;;;;;5002986;28;20041;-73
2022/09/05 08:05:18;;;;;;;10.27;9.20;;;21.10;69.70;;;;;;4986765;28;20520;-73
2022/09/05 08:07:56;;;;;;;10.07;9.15;;;21.20;69.90;;;;;;5001423;28;20054;-74
2022/09/05 08:10:35;;;;;;;9.93;8.90;;;21.30;69.60;;;;;;5002734;28;20091;-73
2022/09/05 08:13:07;;;;;;;9.55;8.48;;;21.40;69.40;;;;;;5002518;28;20050;-74
2022/09/05 08:15:34;;;;;;;10.73;9.68;;;21.50;69.00;;;;;;5002829;28;20405;-73
2022/09/05 08:18:12;;;;;;;9.63;8.60;;;21.60;68.90;;;;;;5002539;28;20046;-73
2022/09/05 08:20:53;;;;;;;10.63;9.63;;;21.70;69.30;;;;;;5002314;28;20056;-74
2022/09/05 08:23:41;;;;;;;10.40;8.63;;;21.90;69.20;;;;;;5001104;28;20034;-73
2022/09/05 08:26:14;;;;;;;10.40;9.02;;;22.00;68.80;;;;;;5002619;28;20054;-73
2022/09/05 08:29:05;;;;;;;9.68;7.90;;;22.10;68.20;;;;;;5001011;28;20216;-73
2022/09/05 08:31:44;;;;;;;9.15;8.23;;;22.20;68.40;;;;;;4986267;28;20118;-72
2022/09/05 08:34:19;;;;;;;10.38;8.77;;;22.40;68.00;;;;;;5002806;28;20496;-73
2022/09/05 08:36:48;;;;;;;9.98;8.57;;;22.50;67.80;;;;;;5000727;28;20066;-73
2022/09/05 08:39:23;;;;;;;9.80;7.93;;;22.60;67.60;;;;;;5002965;28;20082;-73
2022/09/05 08:42:19;;;;;;;9.73;8.07;;;22.80;67.10;;;;;;5002685;28;20046;-74
2022/09/05 08:45:22;;;;;;;12.32;8.88;;;23.00;66.70;;;;;;5002374;28;20057;-73
2022/09/05 08:48:07;;;;;;;10.45;9.45;;;23.10;66.20;;;;;;5001082;28;20050;-73
2022/09/05 08:51:07;;;;;;;8.85;8.00;;;23.30;65.20;;;;;;5005219;28;20077;-74
2022/09/05 08:54:00;;;;;;;8.20;7.40;;;23.40;65.70;;;;;;5005406;28;20515;-74
2022/09/05 08:56:33;;;;;;;9.77;8.00;;;23.70;65.10;;;;;;5004272;28;20050;-73
2022/09/05 08:59:28;;;;;;;9.27;8.20;;;23.90;65.10;;;;;;5004568;28;20307;-73
2022/09/05 09:01:59;;;;;;;10.18;8.80;;;24.10;63.80;;;;;;5003719;28;20045;-73
2022/09/05 09:05:06;;;;;;;9.27;8.25;;;24.20;64.10;;;;;;5004733;28;20137;-74
2022/09/05 09:07:57;;;;;;;9.27;8.13;;;24.40;63.70;;;;;;5004135;28;20093;-73
2022/09/05 09:10:44;;;;;;;9.00;8.10;;;24.40;62.70;;;;;;5003764;28;20046;-73
2022/09/05 09:13:28;;;;;;;9.52;8.23;;;24.50;63.10;;;;;;5005667;28;20046;-74
2022/09/05 09:16:32;;;;;;;9.07;7.63;;;24.60;61.80;;;;;;5005239;28;20490;-73
2022/09/05 09:19:12;;;;;;;11.03;9.03;;;24.70;62.10;;;;;;4985566;28;20058;-75
2022/09/05 09:21:58;;;;;;;10.40;9.00;;;24.80;62.60;;;;;;5005139;28;20300;-73
2022/09/05 09:24:38;;;;;;;17.67;8.73;;;24.90;62.80;;;;;;5004999;28;20555;-75
2022/09/05 09:27:16;;;;;;;10.38;8.32;;;25.00;63.30;;;;;;5003621;28;20129;-75
2022/09/05 09:29:43;;;;;;;8.95;8.05;;;25.20;62.80;;;;;;5004757;28;20080;-76
2022/09/05 09:32:20;;;;;;;10.02;7.72;;;25.30;62.40;;;;;;5005131;28;20046;-75
2022/09/05 09:34:57;;;;;;;9.13;8.20;;;25.40;62.10;;;;;;5005278;28;20045;-75
2022/09/05 09:37:55;;;;;;;8.25;7.38;;;25.60;61.90;;;;;;4987168;28;20050;-74
2022/09/05 09:40:50;;;;;;;8.50;7.63;;;25.80;60.80;;;;;;5004680;28;20053;-74
2022/09/05 09:44:03;;;;;;;8.98;7.95;;;25.90;60.30;;;;;;5010414;28;20106;-74
2022/09/05 09:46:29;;;;;;;9.00;7.72;;;26.00;60.40;;;;;;4937914;28;20069;-75
2022/09/05 09:49:27;;;;;;;10.30;9.20;;;26.10;60.70;;;;;;4994777;28;20038;-75
2022/09/05 09:51:55;;;;;;;11.60;9.70;;;26.20;60.00;;;;;;5006537;28;20046;-75
2022/09/05 09:54:26;;;;;;;10.43;7.95;;;26.20;58.50;;;;;;5010878;28;20041;-75
2022/09/05 09:57:17;;;;;;;9.02;8.23;;;26.30;58.20;;;;;;5011026;28;20046;-75
2022/09/05 10:00:01;;;;;;;9.70;8.80;;;26.40;57.40;;;;;;5010723;28;20387;-74
2022/09/05 10:02:27;;;;;;;8.43;7.63;;;26.40;57.50;;;;;;5011183;28;20046;-74
2022/09/05 10:05:14;;;;;;;8.00;7.30;;;26.70;57.80;;;;;;5010771;28;20512;-74
2022/09/05 10:07:42;;;;;;;8.23;7.43;;;26.90;57.70;;;;;;5011297;28;20490;-74
2022/09/05 10:10:42;;;;;;;10.00;7.13;;;27.20;56.50;;;;;;5010855;28;20110;-74
2022/09/05 10:13:22;;;;;;;7.53;6.75;;;27.20;54.40;;;;;;5011337;28;20045;-74
2022/09/05 10:16:29;;;;;;;7.25;6.25;;;27.30;55.10;;;;;;5011170;28;20504;-74
2022/09/05 10:19:32;;;;;;;10.00;8.27;;;27.40;55.20;;;;;;5010943;28;20050;-73
2022/09/05 10:22:25;;;;;;;6.38;5.78;;;27.60;53.90;;;;;;4977713;28;20057;-75
2022/09/05 10:24:50;;;;;;;6.33;5.73;;;27.90;54.50;;;;;;5010952;28;20046;-74
2022/09/05 10:27:38;;;;;;;6.75;5.35;;;28.10;54.30;;;;;;5010751;28;20128;-75
2022/09/05 10:30:18;;;;;;;8.52;6.15;;;28.20;53.30;;;;;;5010855;28;20080;-75
2022/09/05 10:32:53;;;;;;;8.02;7.22;;;28.40;53.10;;;;;;5011004;28;20034;-75
2022/09/05 10:35:23;;;;;;;7.13;6.43;;;28.40;52.50;;;;;;4994276;28;20058;-75
2022/09/05 10:37:57;;;;;;;5.93;5.35;;;28.50;53.00;;;;;;5010595;28;20064;-76
2022/09/05 10:40:26;;;;;;;5.60;5.10;;;28.70;52.50;;;;;;5010596;28;20102;-75
2022/09/05 10:42:59;;;;;;;4.97;4.50;;;28.80;52.30;;;;;;5010260;28;20063;-75
2022/09/05 10:45:45;;;;;;;7.45;5.25;;;28.90;52.20;;;;;;5010045;28;20081;-74
2022/09/05 10:48:26;;;;;;;12.15;5.03;;;29.10;51.60;;;;;;5010218;28;20080;-76
2022/09/05 10:51:13;;;;;;;5.28;4.50;;;29.30;50.50;;;;;;5010338;28;20048;-76
2022/09/05 10:54:21;;;;;;;6.80;4.45;;;29.30;49.80;;;;;;5010361;28;20050;-76
2022/09/05 10:56:55;;;;;;;4.90;4.30;;;29.60;50.50;;;;;;4977795;28;20541;-75
2022/09/05 10:59:48;;;;;;;6.22;4.18;;;29.60;48.30;;;;;;5010295;28;20065;-76
2022/09/05 11:02:18;;;;;;;4.43;3.97;;;29.70;48.20;;;;;;5010270;28;20043;-75
2022/09/05 11:05:07;;;;;;;4.88;4.00;;;29.80;48.70;;;;;;5010227;28;20374;-76
2022/09/05 11:08:16;;;;;;;4.85;4.35;;;30.00;47.30;;;;;;5009935;28;20073;-76
2022/09/05 11:10:55;;;;;;;5.35;3.15;;;30.10;47.70;;;;;;4972833;28;20050;-76
2022/09/05 11:13:45;;;;;;;4.47;3.60;;;30.20;46.40;;;;;;5009649;28;20060;-76
2022/09/05 11:16:30;;;;;;;4.38;3.50;;;30.30;46.10;;;;;;5010018;28;20129;-77
2022/09/05 11:19:16;;;;;;;4.30;3.28;;;30.40;46.60;;;;;;4993604;28;20041;-76
2022/09/05 11:22:04;;;;;;;3.67;3.15;;;30.40;44.60;;;;;;5009619;28;20048;-76
2022/09/05 11:24:51;;;;;;;3.22;2.75;;;30.60;44.90;;;;;;5009731;28;20447;-77
2022/09/05 11:27:42;;;;;;;5.50;3.38;;;30.70;44.90;;;;;;5009679;28;20497;-77
2022/09/05 11:30:16;;;;;;;5.95;3.15;;;30.80;44.60;;;;;;4993502;28;20046;-77
2022/09/05 11:33:10;;;;;;;4.18;3.15;;;31.00;44.80;;;;;;5009417;28;20044;-77
2022/09/05 11:36:08;;;;;;;3.65;3.22;;;31.10;43.60;;;;;;4999799;28;20058;-75
2022/09/05 11:38:37;;;;;;;4.07;3.25;;;31.20;43.10;;;;;;5009591;28;20070;-76
2022/09/05 11:41:23;;;;;;;4.28;3.85;;;31.30;44.20;;;;;;5009803;28;20387;-76
2022/09/05 11:43:55;;;;;;;4.05;3.65;;;31.30;43.00;;;;;;5008691;28;20073;-74
2022/09/05 11:46:27;;;;;;;5.63;3.33;;;31.20;42.10;;;;;;4993288;28;20046;-77
2022/09/05 11:49:05;;;;;;;5.45;3.13;;;31.10;41.60;;;;;;5009925;28;20048;-77
2022/09/05 11:52:01;;;;;;;4.72;3.05;;;31.10;42.60;;;;;;5008760;28;20060;-77
2022/09/05 11:54:53;;;;;;;4.60;2.60;;;31.30;41.80;;;;;;5009462;28;20509;-77
2022/09/05 11:57:43;;;;;;;3.10;2.80;;;31.40;42.10;;;;;;5009495;28;20167;-77
2022/09/05 12:00:19;;;;;;;3.30;3.00;;;31.40;40.70;;;;;;5009529;28;20077;-77
2022/09/05 12:03:16;;;;;;;2.38;2.17;;;31.50;40.10;;;;;;5009624;28;20371;-77
2022/09/05 12:05:54;;;;;;;3.88;2.40;;;31.40;37.80;;;;;;5009323;28;20057;-77
2022/09/05 12:08:39;;;;;;;3.63;2.60;;;31.30;38.20;;;;;;4992946;28;20125;-77
2022/09/05 12:11:34;;;;;;;4.07;3.05;;;31.00;39.70;;;;;;5009560;28;20385;-77
2022/09/05 12:14:25;;;;;;;5.97;2.80;;;30.90;39.30;;;;;;5009623;28;20363;-77
2022/09/05 12:17:15;;;;;;;5.55;2.30;;;30.80;40.00;;;;;;5009425;28;20386;-77
2022/09/05 12:19:58;;;;;;;3.65;2.70;;;30.90;39.50;;;;;;5009180;28;20050;-77
2022/09/05 12:22:33;;;;;;;3.20;2.78;;;31.20;39.80;;;;;;5009111;28;20490;-77
2022/09/05 12:25:10;;;;;;;3.97;2.90;;;31.40;38.60;;;;;;5009252;28;20053;-77
2022/09/05 12:27:38;;;;;;;3.47;2.42;;;31.40;39.00;;;;;;5009133;28;20038;-77
2022/09/05 12:30:10;;;;;;;3.92;2.60;;;31.40;40.10;;;;;;4993092;28;20386;-77
2022/09/05 12:32:47;;;;;;;6.05;2.72;;;31.00;38.40;;;;;;4992997;28;20050;-77
2022/09/05 12:35:40;;;;;;;4.22;2.45;;;30.80;38.30;;;;;;4992495;28;20069;-77
2022/09/05 12:38:27;;;;;;;3.67;2.00;;;30.80;39.00;;;;;;4992140;28;20049;-75
2022/09/05 12:41:10;;;;;;;3.30;2.33;;;30.70;38.30;;;;;;4992914;28;20057;-75
2022/09/05 12:43:44;;;;;;;2.90;2.47;;;30.50;39.10;;;;;;5008760;28;20046;-75
2022/09/05 12:46:15;;;;;;;2.92;2.17;;;30.40;38.70;;;;;;5008801;28;20305;-77
2022/09/05 12:48:55;;;;;;;8.10;2.40;;;30.50;38.50;;;;;;5009088;28;20046;-77
2022/09/05 12:51:27;;;;;;;4.50;2.58;;;30.60;37.70;;;;;;5009142;28;20481;-77
2022/09/05 12:54:14;;;;;;;5.50;1.92;;;30.70;36.40;;;;;;5008658;28;20091;-77
2022/09/05 12:56:59;;;;;;;6.53;2.10;;;30.70;36.80;;;;;;5008941;28;20045;-77
2022/09/05 12:59:27;;;;;;;4.95;2.33;;;30.80;36.60;;;;;;5008694;28;20060;-75
2022/09/05 13:02:02;;;;;;;3.88;1.92;;;30.80;37.90;;;;;;5008726;28;20057;-75
2022/09/05 13:04:35;;;;;;;3.03;2.25;;;30.90;38.10;;;;;;5008654;28;20046;-74
2022/09/05 13:07:08;;;;;;;2.70;2.28;;;30.90;38.10;;;;;;5008647;28;20038;-77
2022/09/05 13:09:46;;;;;;;3.20;1.85;;;30.80;37.10;;;;;;5008654;28;20038;-77
2022/09/05 13:12:30;;;;;;;2.47;1.70;;;30.70;36.50;;;;;;5008757;28;20045;-75
2022/09/05 13:15:19;;;;;;;3.28;1.92;;;30.70;36.70;;;;;;5008679;28;20038;-75
2022/09/05 13:18:09;;;;;;;2.40;1.88;;;30.80;36.40;;;;;;4992442;28;20077;-75
2022/09/05 13:20:44;;;;;;;2.53;1.92;;;30.90;37.00;;;;;;5008454;28;20049;-75
2022/09/05 13:23:21;;;;;;;3.33;1.80;;;30.80;36.80;;;;;;5008527;28;20480;-76
2022/09/05 13:26:11;;;;;;;3.20;2.47;;;30.90;37.10;;;;;;5008402;28;20379;-75
2022/09/05 13:28:51;;;;;;;1.67;1.58;;;31.10;35.30;;;;;;5008342;28;20502;-75
2022/09/05 13:31:58;;;;;;;3.38;1.90;;;31.30;37.90;;;;;;5008419;28;20044;-75
2022/09/05 13:34:35;;;;;;;3.47;1.80;;;31.20;34.00;;;;;;5008525;28;20401;-76
2022/09/05 13:37:26;;;;;;;3.83;1.92;;;31.30;34.80;;;;;;5011767;28;20050;-75
2022/09/05 13:39:58;;;;;;;3.45;2.25;;;31.50;35.90;;;;;;5011468;28;20049;-75
2022/09/05 13:42:30;;;;;;;2.15;1.90;;;31.80;35.30;;;;;;5011576;28;20079;-75
2022/09/05 13:45:00;;;;;;;2.50;2.30;;;31.70;35.50;;;;;;5011529;28;20050;-75
2022/09/05 13:47:51;;;;;;;2.10;1.70;;;31.50;34.10;;;;;;5011649;28;20045;-76
2022/09/05 13:50:27;;;;;;;2.55;1.52;;;31.30;35.30;;;;;;5011385;28;20094;-76
2022/09/05 13:53:01;;;;;;;3.55;1.70;;;30.90;35.10;;;;;;5011473;28;20489;-76
2022/09/05 13:55:39;;;;;;;4.72;1.60;;;30.80;34.40;;;;;;5011317;28;20129;-76
2022/09/05 13:58:13;;;;;;;2.25;1.50;;;30.70;34.40;;;;;;4994910;28;20042;-76
2022/09/05 14:00:54;;;;;;;2.80;1.55;;;30.50;35.20;;;;;;5011405;28;20042;-76
2022/09/05 14:04:04;;;;;;;3.60;1.75;;;30.60;34.80;;;;;;5011049;28;20053;-76